sensor_id;sensor_type;location;lat;lon;timestamp;temperature;humidity
78366;HTU21D;67641;59.864;30.464;2023-04-08T00:01:29;10.86;47.73
78366;HTU21D;67641;59.864;30.464;2023-04-08T00:03:56;10.80;47.81
78366;HTU21D;67641;59.864;30.464;2023-04-08T00:06:22;10.79;48.35
78366;HTU21D;67641;59.864;30.464;2023-04-08T00:08:49;10.81;48.57
78366;HTU21D;67641;59.864;30.464;2023-04-08T00:11:15;10.86;48.12
78366;HTU21D;67641;59.864;30.464;2023-04-08T00:13:41;10.89;47.49
78366;HTU21D;67641;59.864;30.464;2023-04-08T00:16:08;10.70;48.40
78366;HTU21D;67641;59.864;30.464;2023-04-08T00:18:34;10.71;48.81
78366;HTU21D;67641;59.864;30.464;2023-04-08T00:21:03;10.78;48.65
78366;HTU21D;67641;59.864;30.464;2023-04-08T00:23:30;10.86;47.76
78366;HTU21D;67641;59.864;30.464;2023-04-08T00:25:56;10.89;48.23
78366;HTU21D;67641;59.864;30.464;2023-04-08T00:28:23;10.93;47.57
78366;HTU21D;67641;59.864;30.464;2023-04-08T00:30:49;10.84;47.93
78366;HTU21D;67641;59.864;30.464;2023-04-08T00:33:16;10.90;47.69
78366;HTU21D;67641;59.864;30.464;2023-04-08T00:35:43;10.98;47.79
78366;HTU21D;67641;59.864;30.464;2023-04-08T00:38:09;11.05;47.48
78366;HTU21D;67641;59.864;30.464;2023-04-08T00:40:35;11.12;47.13
78366;HTU21D;67641;59.864;30.464;2023-04-08T00:43:02;11.17;47.00
78366;HTU21D;67641;59.864;30.464;2023-04-08T00:45:28;11.08;47.25
78366;HTU21D;67641;59.864;30.464;2023-04-08T00:47:55;11.05;46.86
78366;HTU21D;67641;59.864;30.464;2023-04-08T00:50:22;11.12;47.22
78366;HTU21D;67641;59.864;30.464;2023-04-08T00:52:48;11.15;47.28
78366;HTU21D;67641;59.864;30.464;2023-04-08T00:55:15;11.23;47.43
78366;HTU21D;67641;59.864;30.464;2023-04-08T00:57:42;11.29;46.73
78366;HTU21D;67641;59.864;30.464;2023-04-08T01:00:09;11.26;47.43
78366;HTU21D;67641;59.864;30.464;2023-04-08T01:02:53;11.22;48.39
78366;HTU21D;67641;59.864;30.464;2023-04-08T01:05:42;11.28;48.06
78366;HTU21D;67641;59.864;30.464;2023-04-08T01:08:15;11.31;47.89
78366;HTU21D;67641;59.864;30.464;2023-04-08T01:10:44;11.28;47.91
78366;HTU21D;67641;59.864;30.464;2023-04-08T01:13:16;11.12;47.59
78366;HTU21D;67641;59.864;30.464;2023-04-08T01:15:44;11.15;47.94
78366;HTU21D;67641;59.864;30.464;2023-04-08T01:18:12;11.15;47.45
78366;HTU21D;67641;59.864;30.464;2023-04-08T01:20:41;11.01;48.52
78366;HTU21D;67641;59.864;30.464;2023-04-08T01:25:49;10.90;48.82
78366;HTU21D;67641;59.864;30.464;2023-04-08T01:28:17;10.98;48.89
78366;HTU21D;67641;59.864;30.464;2023-04-08T01:30:45;11.02;48.68
78366;HTU21D;67641;59.864;30.464;2023-04-08T01:33:15;10.94;48.60
78366;HTU21D;67641;59.864;30.464;2023-04-08T01:35:43;10.92;49.38
78366;HTU21D;67641;59.864;30.464;2023-04-08T01:38:17;11.00;49.08
78366;HTU21D;67641;59.864;30.464;2023-04-08T01:40:46;11.08;48.57
78366;HTU21D;67641;59.864;30.464;2023-04-08T01:43:15;11.08;48.58
78366;HTU21D;67641;59.864;30.464;2023-04-08T01:45:44;11.14;48.34
78366;HTU21D;67641;59.864;30.464;2023-04-08T01:48:12;11.15;48.55
78366;HTU21D;67641;59.864;30.464;2023-04-08T01:50:41;11.22;48.64
78366;HTU21D;67641;59.864;30.464;2023-04-08T01:53:09;11.26;47.72
78366;HTU21D;67641;59.864;30.464;2023-04-08T01:55:37;11.32;47.29
78366;HTU21D;67641;59.864;30.464;2023-04-08T01:58:06;11.36;47.49
78366;HTU21D;67641;59.864;30.464;2023-04-08T02:00:34;11.31;48.23
78366;HTU21D;67641;59.864;30.464;2023-04-08T02:03:02;11.32;48.30
78366;HTU21D;67641;59.864;30.464;2023-04-08T02:05:30;11.32;48.56
78366;HTU21D;67641;59.864;30.464;2023-04-08T02:07:56;11.34;48.70
78366;HTU21D;67641;59.864;30.464;2023-04-08T02:10:22;11.36;48.56
78366;HTU21D;67641;59.864;30.464;2023-04-08T02:12:49;11.37;48.53
78366;HTU21D;67641;59.864;30.464;2023-04-08T02:15:15;11.41;48.59
78366;HTU21D;67641;59.864;30.464;2023-04-08T02:17:47;11.41;49.02
78366;HTU21D;67641;59.864;30.464;2023-04-08T02:23:09;11.38;49.20
78366;HTU21D;67641;59.864;30.464;2023-04-08T02:25:39;11.28;49.89
78366;HTU21D;67641;59.864;30.464;2023-04-08T02:28:09;11.25;50.10
78366;HTU21D;67641;59.864;30.464;2023-04-08T02:30:39;11.29;50.14
78366;HTU21D;67641;59.864;30.464;2023-04-08T02:33:06;11.32;49.94
78366;HTU21D;67641;59.864;30.464;2023-04-08T02:35:34;11.29;49.79
78366;HTU21D;67641;59.864;30.464;2023-04-08T02:38:01;11.31;49.98
78366;HTU21D;67641;59.864;30.464;2023-04-08T02:40:29;11.23;50.14
78366;HTU21D;67641;59.864;30.464;2023-04-08T02:42:56;11.26;50.21
78366;HTU21D;67641;59.864;30.464;2023-04-08T02:45:27;11.30;50.02
78366;HTU21D;67641;59.864;30.464;2023-04-08T02:47:54;11.32;49.94
78366;HTU21D;67641;59.864;30.464;2023-04-08T02:50:21;11.36;49.67
78366;HTU21D;67641;59.864;30.464;2023-04-08T02:52:47;11.26;49.34
78366;HTU21D;67641;59.864;30.464;2023-04-08T02:55:13;11.25;49.62
78366;HTU21D;67641;59.864;30.464;2023-04-08T02:57:41;11.29;49.97
78366;HTU21D;67641;59.864;30.464;2023-04-08T03:00:08;11.31;50.21
78366;HTU21D;67641;59.864;30.464;2023-04-08T03:02:35;11.31;49.79
78366;HTU21D;67641;59.864;30.464;2023-04-08T03:05:01;11.33;49.88
78366;HTU21D;67641;59.864;30.464;2023-04-08T03:07:28;11.29;49.65
78366;HTU21D;67641;59.864;30.464;2023-04-08T03:09:54;11.28;50.16
78366;HTU21D;67641;59.864;30.464;2023-04-08T03:12:21;11.31;50.35
78366;HTU21D;67641;59.864;30.464;2023-04-08T03:14:48;11.00;52.46
78366;HTU21D;67641;59.864;30.464;2023-04-08T03:17:15;11.00;52.59
78366;HTU21D;67641;59.864;30.464;2023-04-08T03:19:41;11.04;52.60
78366;HTU21D;67641;59.864;30.464;2023-04-08T03:22:07;11.10;52.15
78366;HTU21D;67641;59.864;30.464;2023-04-08T03:24:36;11.15;51.85
78366;HTU21D;67641;59.864;30.464;2023-04-08T03:27:02;11.11;52.04
78366;HTU21D;67641;59.864;30.464;2023-04-08T03:29:29;11.12;51.98
78366;HTU21D;67641;59.864;30.464;2023-04-08T03:31:55;11.16;52.00
78366;HTU21D;67641;59.864;30.464;2023-04-08T03:34:21;11.17;52.00
78366;HTU21D;67641;59.864;30.464;2023-04-08T03:36:47;11.24;51.79
78366;HTU21D;67641;59.864;30.464;2023-04-08T03:39:13;11.29;51.87
78366;HTU21D;67641;59.864;30.464;2023-04-08T03:41:40;11.08;52.36
78366;HTU21D;67641;59.864;30.464;2023-04-08T03:44:06;11.09;52.75
78366;HTU21D;67641;59.864;30.464;2023-04-08T03:46:32;11.14;52.74
78366;HTU21D;67641;59.864;30.464;2023-04-08T03:48:58;11.08;53.21
78366;HTU21D;67641;59.864;30.464;2023-04-08T03:51:25;11.13;53.38
78366;HTU21D;67641;59.864;30.464;2023-04-08T03:53:52;11.16;52.91
78366;HTU21D;67641;59.864;30.464;2023-04-08T03:56:19;11.22;52.64
78366;HTU21D;67641;59.864;30.464;2023-04-08T03:58:45;11.25;52.33
78366;HTU21D;67641;59.864;30.464;2023-04-08T04:01:11;11.09;53.33
78366;HTU21D;67641;59.864;30.464;2023-04-08T04:03:37;10.94;54.27
78366;HTU21D;67641;59.864;30.464;2023-04-08T04:06:04;10.96;54.19
78366;HTU21D;67641;59.864;30.464;2023-04-08T04:08:31;11.08;53.83
78366;HTU21D;67641;59.864;30.464;2023-04-08T04:10:58;11.11;54.04
78366;HTU21D;67641;59.864;30.464;2023-04-08T04:13:24;11.19;54.25
78366;HTU21D;67641;59.864;30.464;2023-04-08T04:15:50;11.29;53.21
78366;HTU21D;67641;59.864;30.464;2023-04-08T04:18:16;11.33;52.24
78366;HTU21D;67641;59.864;30.464;2023-04-08T04:20:43;11.17;53.27
78366;HTU21D;67641;59.864;30.464;2023-04-08T04:23:09;11.24;53.81
78366;HTU21D;67641;59.864;30.464;2023-04-08T04:25:35;11.32;53.59
78366;HTU21D;67641;59.864;30.464;2023-04-08T04:28:01;11.40;52.78
78366;HTU21D;67641;59.864;30.464;2023-04-08T04:30:28;11.27;53.59
78366;HTU21D;67641;59.864;30.464;2023-04-08T04:32:54;11.32;53.33
78366;HTU21D;67641;59.864;30.464;2023-04-08T04:35:21;11.44;53.53
78366;HTU21D;67641;59.864;30.464;2023-04-08T04:37:47;11.56;52.72
78366;HTU21D;67641;59.864;30.464;2023-04-08T04:40:15;11.67;52.15
78366;HTU21D;67641;59.864;30.464;2023-04-08T04:42:41;11.60;53.43
78366;HTU21D;67641;59.864;30.464;2023-04-08T04:45:08;11.52;54.78
78366;HTU21D;67641;59.864;30.464;2023-04-08T04:47:34;11.63;54.74
78366;HTU21D;67641;59.864;30.464;2023-04-08T04:50:01;11.75;54.10
78366;HTU21D;67641;59.864;30.464;2023-04-08T04:52:27;11.85;53.84
78366;HTU21D;67641;59.864;30.464;2023-04-08T04:54:53;11.78;54.45
78366;HTU21D;67641;59.864;30.464;2023-04-08T04:57:22;11.73;54.37
78366;HTU21D;67641;59.864;30.464;2023-04-08T04:59:49;11.86;53.97
78366;HTU21D;67641;59.864;30.464;2023-04-08T05:02:16;11.98;54.21
78366;HTU21D;67641;59.864;30.464;2023-04-08T05:04:42;12.10;54.59
78366;HTU21D;67641;59.864;30.464;2023-04-08T05:07:09;12.21;54.21
78366;HTU21D;67641;59.864;30.464;2023-04-08T05:09:35;12.32;54.33
78366;HTU21D;67641;59.864;30.464;2023-04-08T05:12:01;12.37;54.38
78366;HTU21D;67641;59.864;30.464;2023-04-08T05:14:29;12.43;54.05
78366;HTU21D;67641;59.864;30.464;2023-04-08T05:16:55;12.34;55.49
78366;HTU21D;67641;59.864;30.464;2023-04-08T05:19:22;12.27;56.46
78366;HTU21D;67641;59.864;30.464;2023-04-08T05:21:49;12.34;56.83
78366;HTU21D;67641;59.864;30.464;2023-04-08T05:24:15;12.43;55.96
78366;HTU21D;67641;59.864;30.464;2023-04-08T05:26:42;12.48;56.77
78366;HTU21D;67641;59.864;30.464;2023-04-08T05:29:08;12.61;56.28
78366;HTU21D;67641;59.864;30.464;2023-04-08T05:31:34;12.73;56.00
78366;HTU21D;67641;59.864;30.464;2023-04-08T05:34:01;12.87;55.18
78366;HTU21D;67641;59.864;30.464;2023-04-08T05:36:28;12.96;54.75
78366;HTU21D;67641;59.864;30.464;2023-04-08T05:38:54;13.08;54.61
78366;HTU21D;67641;59.864;30.464;2023-04-08T05:41:20;13.23;52.89
78366;HTU21D;67641;59.864;30.464;2023-04-08T05:43:47;13.41;52.27
78366;HTU21D;67641;59.864;30.464;2023-04-08T05:46:13;13.56;51.60
78366;HTU21D;67641;59.864;30.464;2023-04-08T05:48:40;13.74;50.76
78366;HTU21D;67641;59.864;30.464;2023-04-08T05:51:14;13.88;47.85
78366;HTU21D;67641;59.864;30.464;2023-04-08T05:53:44;13.91;47.86
78366;HTU21D;67641;59.864;30.464;2023-04-08T05:56:12;14.01;48.10
78366;HTU21D;67641;59.864;30.464;2023-04-08T05:58:39;14.11;48.05
78366;HTU21D;67641;59.864;30.464;2023-04-08T06:01:05;14.27;48.18
78366;HTU21D;67641;59.864;30.464;2023-04-08T06:03:32;14.33;47.07
78366;HTU21D;67641;59.864;30.464;2023-04-08T06:05:58;14.41;45.80
78366;HTU21D;67641;59.864;30.464;2023-04-08T06:08:25;14.44;43.70
78366;HTU21D;67641;59.864;30.464;2023-04-08T06:10:51;14.50;43.63
78366;HTU21D;67641;59.864;30.464;2023-04-08T06:13:18;14.55;43.61
78366;HTU21D;67641;59.864;30.464;2023-04-08T06:15:46;14.63;43.33
78366;HTU21D;67641;59.864;30.464;2023-04-08T06:18:15;14.72;43.12
78366;HTU21D;67641;59.864;30.464;2023-04-08T06:20:41;14.81;42.17
78366;HTU21D;67641;59.864;30.464;2023-04-08T06:23:08;14.86;42.71
78366;HTU21D;67641;59.864;30.464;2023-04-08T06:25:34;14.97;41.59
78366;HTU21D;67641;59.864;30.464;2023-04-08T06:28:01;14.89;39.87
78366;HTU21D;67641;59.864;30.464;2023-04-08T06:30:27;14.82;40.06
78366;HTU21D;67641;59.864;30.464;2023-04-08T06:32:54;14.63;40.67
78366;HTU21D;67641;59.864;30.464;2023-04-08T06:35:20;14.54;42.11
78366;HTU21D;67641;59.864;30.464;2023-04-08T06:37:47;14.52;41.04
78366;HTU21D;67641;59.864;30.464;2023-04-08T06:40:13;14.50;41.90
78366;HTU21D;67641;59.864;30.464;2023-04-08T06:42:40;14.70;40.21
78366;HTU21D;67641;59.864;30.464;2023-04-08T06:45:09;14.83;39.17
78366;HTU21D;67641;59.864;30.464;2023-04-08T06:47:36;14.84;40.82
78366;HTU21D;67641;59.864;30.464;2023-04-08T06:50:03;15.01;41.08
78366;HTU21D;67641;59.864;30.464;2023-04-08T06:52:29;15.16;40.60
78366;HTU21D;67641;59.864;30.464;2023-04-08T06:54:56;15.25;40.30
78366;HTU21D;67641;59.864;30.464;2023-04-08T06:57:22;15.32;39.53
78366;HTU21D;67641;59.864;30.464;2023-04-08T06:59:49;15.29;40.06
78366;HTU21D;67641;59.864;30.464;2023-04-08T07:02:15;15.42;39.16
78366;HTU21D;67641;59.864;30.464;2023-04-08T07:04:42;15.52;39.27
78366;HTU21D;67641;59.864;30.464;2023-04-08T07:07:08;15.48;39.85
78366;HTU21D;67641;59.864;30.464;2023-04-08T07:09:35;15.22;40.07
78366;HTU21D;67641;59.864;30.464;2023-04-08T07:12:02;15.25;40.43
78366;HTU21D;67641;59.864;30.464;2023-04-08T07:14:30;15.19;40.46
78366;HTU21D;67641;59.864;30.464;2023-04-08T07:16:56;15.11;40.85
78366;HTU21D;67641;59.864;30.464;2023-04-08T07:19:23;14.87;41.13
78366;HTU21D;67641;59.864;30.464;2023-04-08T07:21:49;14.87;42.14
78366;HTU21D;67641;59.864;30.464;2023-04-08T07:24:17;14.73;41.13
78366;HTU21D;67641;59.864;30.464;2023-04-08T07:26:44;14.83;41.49
78366;HTU21D;67641;59.864;30.464;2023-04-08T07:29:10;14.96;41.20
78366;HTU21D;67641;59.864;30.464;2023-04-08T07:31:37;15.02;41.04
78366;HTU21D;67641;59.864;30.464;2023-04-08T07:34:03;14.95;41.58
78366;HTU21D;67641;59.864;30.464;2023-04-08T07:36:30;15.10;41.59
78366;HTU21D;67641;59.864;30.464;2023-04-08T07:38:56;15.18;42.12
78366;HTU21D;67641;59.864;30.464;2023-04-08T07:41:23;15.17;43.05
78366;HTU21D;67641;59.864;30.464;2023-04-08T07:43:51;14.97;45.18
78366;HTU21D;67641;59.864;30.464;2023-04-08T07:46:17;14.87;46.19
78366;HTU21D;67641;59.864;30.464;2023-04-08T07:48:45;14.98;46.29
78366;HTU21D;67641;59.864;30.464;2023-04-08T07:51:11;15.07;46.23
78366;HTU21D;67641;59.864;30.464;2023-04-08T07:53:38;15.28;46.03
78366;HTU21D;67641;59.864;30.464;2023-04-08T07:56:13;15.44;45.84
78366;HTU21D;67641;59.864;30.464;2023-04-08T07:58:41;15.63;45.37
78366;HTU21D;67641;59.864;30.464;2023-04-08T08:01:21;15.56;46.12
78366;HTU21D;67641;59.864;30.464;2023-04-08T08:03:49;15.68;45.22
78366;HTU21D;67641;59.864;30.464;2023-04-08T08:06:16;15.54;45.33
78366;HTU21D;67641;59.864;30.464;2023-04-08T08:08:43;15.40;45.38
78366;HTU21D;67641;59.864;30.464;2023-04-08T08:11:09;15.44;45.79
78366;HTU21D;67641;59.864;30.464;2023-04-08T08:13:35;15.26;45.31
78366;HTU21D;67641;59.864;30.464;2023-04-08T08:16:01;15.28;45.19
78366;HTU21D;67641;59.864;30.464;2023-04-08T08:18:28;15.33;45.99
78366;HTU21D;67641;59.864;30.464;2023-04-08T08:20:54;15.04;45.72
78366;HTU21D;67641;59.864;30.464;2023-04-08T08:23:21;14.97;46.33
78366;HTU21D;67641;59.864;30.464;2023-04-08T08:25:47;15.03;46.82
78366;HTU21D;67641;59.864;30.464;2023-04-08T08:28:13;15.19;46.94
78366;HTU21D;67641;59.864;30.464;2023-04-08T08:30:39;15.19;47.28
78366;HTU21D;67641;59.864;30.464;2023-04-08T08:33:05;15.19;46.80
78366;HTU21D;67641;59.864;30.464;2023-04-08T08:35:32;15.36;46.32
78366;HTU21D;67641;59.864;30.464;2023-04-08T08:37:58;15.31;46.78
78366;HTU21D;67641;59.864;30.464;2023-04-08T08:40:24;15.41;46.54
78366;HTU21D;67641;59.864;30.464;2023-04-08T08:42:51;15.71;46.28
78366;HTU21D;67641;59.864;30.464;2023-04-08T08:45:20;16.00;45.15
78366;HTU21D;67641;59.864;30.464;2023-04-08T08:47:46;16.21;45.12
78366;HTU21D;67641;59.864;30.464;2023-04-08T08:50:13;16.37;45.08
78366;HTU21D;67641;59.864;30.464;2023-04-08T08:52:47;16.45;44.87
78366;HTU21D;67641;59.864;30.464;2023-04-08T08:55:13;16.42;44.83
78366;HTU21D;67641;59.864;30.464;2023-04-08T08:57:40;16.36;45.03
78366;HTU21D;67641;59.864;30.464;2023-04-08T09:00:07;16.36;46.10
78366;HTU21D;67641;59.864;30.464;2023-04-08T09:02:34;16.15;46.12
78366;HTU21D;67641;59.864;30.464;2023-04-08T09:05:02;16.13;45.93
78366;HTU21D;67641;59.864;30.464;2023-04-08T09:07:31;16.20;45.11
78366;HTU21D;67641;59.864;30.464;2023-04-08T09:10:00;16.48;44.44
78366;HTU21D;67641;59.864;30.464;2023-04-08T09:12:27;16.74;44.74
78366;HTU21D;67641;59.864;30.464;2023-04-08T09:15:06;16.50;44.81
78366;HTU21D;67641;59.864;30.464;2023-04-08T09:17:38;16.27;45.09
78366;HTU21D;67641;59.864;30.464;2023-04-08T09:20:11;16.37;45.47
78366;HTU21D;67641;59.864;30.464;2023-04-08T09:22:57;16.47;45.05
78366;HTU21D;67641;59.864;30.464;2023-04-08T09:25:29;16.45;45.65
78366;HTU21D;67641;59.864;30.464;2023-04-08T09:27:56;16.46;45.90
78366;HTU21D;67641;59.864;30.464;2023-04-08T09:30:24;16.41;46.44
78366;HTU21D;67641;59.864;30.464;2023-04-08T09:32:53;16.30;45.77
78366;HTU21D;67641;59.864;30.464;2023-04-08T09:35:21;16.65;45.27
78366;HTU21D;67641;59.864;30.464;2023-04-08T09:37:48;17.00;44.38
78366;HTU21D;67641;59.864;30.464;2023-04-08T09:40:15;17.30;43.73
78366;HTU21D;67641;59.864;30.464;2023-04-08T09:42:45;17.35;43.82
78366;HTU21D;67641;59.864;30.464;2023-04-08T09:45:15;17.36;45.15
78366;HTU21D;67641;59.864;30.464;2023-04-08T09:47:55;17.01;45.40
78366;HTU21D;67641;59.864;30.464;2023-04-08T09:50:30;16.73;46.54
78366;HTU21D;67641;59.864;30.464;2023-04-08T09:53:04;16.76;46.10
78366;HTU21D;67641;59.864;30.464;2023-04-08T09:55:36;16.66;49.53
78366;HTU21D;67641;59.864;30.464;2023-04-08T09:58:10;16.29;50.76
78366;HTU21D;67641;59.864;30.464;2023-04-08T10:00:41;16.22;50.82
78366;HTU21D;67641;59.864;30.464;2023-04-08T10:03:31;16.36;53.30
78366;HTU21D;67641;59.864;30.464;2023-04-08T10:06:01;16.17;53.33
78366;HTU21D;67641;59.864;30.464;2023-04-08T10:08:29;16.31;52.76
78366;HTU21D;67641;59.864;30.464;2023-04-08T10:10:56;16.45;53.28
78366;HTU21D;67641;59.864;30.464;2023-04-08T10:13:24;16.37;52.89
78366;HTU21D;67641;59.864;30.464;2023-04-08T10:16:17;16.48;52.37
78366;HTU21D;67641;59.864;30.464;2023-04-08T10:18:44;16.60;51.82
78366;HTU21D;67641;59.864;30.464;2023-04-08T10:21:35;16.96;50.38
78366;HTU21D;67641;59.864;30.464;2023-04-08T10:24:07;17.34;48.73
78366;HTU21D;67641;59.864;30.464;2023-04-08T10:26:36;17.51;47.67
78366;HTU21D;67641;59.864;30.464;2023-04-08T10:31:45;17.44;48.78
78366;HTU21D;67641;59.864;30.464;2023-04-08T10:34:23;17.59;48.05
78366;HTU21D;67641;59.864;30.464;2023-04-08T10:36:53;17.41;49.68
78366;HTU21D;67641;59.864;30.464;2023-04-08T10:39:20;17.39;49.26
78366;HTU21D;67641;59.864;30.464;2023-04-08T10:41:49;17.24;47.82
78366;HTU21D;67641;59.864;30.464;2023-04-08T10:44:16;17.28;48.69
78366;HTU21D;67641;59.864;30.464;2023-04-08T10:46:44;17.60;47.16
78366;HTU21D;67641;59.864;30.464;2023-04-08T10:49:15;17.74;46.36
78366;HTU21D;67641;59.864;30.464;2023-04-08T10:51:43;17.94;46.73
78366;HTU21D;67641;59.864;30.464;2023-04-08T10:54:12;17.59;47.60
78366;HTU21D;67641;59.864;30.464;2023-04-08T10:56:50;17.55;48.33
78366;HTU21D;67641;59.864;30.464;2023-04-08T10:59:28;17.69;48.44
78366;HTU21D;67641;59.864;30.464;2023-04-08T11:01:57;17.79;47.87
78366;HTU21D;67641;59.864;30.464;2023-04-08T11:04:24;17.56;48.91
78366;HTU21D;67641;59.864;30.464;2023-04-08T11:06:50;17.41;49.73
78366;HTU21D;67641;59.864;30.464;2023-04-08T11:09:17;17.51;48.80
78366;HTU21D;67641;59.864;30.464;2023-04-08T11:11:45;17.29;50.00
78366;HTU21D;67641;59.864;30.464;2023-04-08T11:14:12;17.30;50.57
78366;HTU21D;67641;59.864;30.464;2023-04-08T11:16:39;17.25;50.45
78366;HTU21D;67641;59.864;30.464;2023-04-08T11:19:06;17.30;50.79
78366;HTU21D;67641;59.864;30.464;2023-04-08T11:21:37;17.30;50.57
78366;HTU21D;67641;59.864;30.464;2023-04-08T11:24:10;17.21;50.24
78366;HTU21D;67641;59.864;30.464;2023-04-08T11:26:38;17.21;50.12
78366;HTU21D;67641;59.864;30.464;2023-04-08T11:29:05;17.28;49.50
78366;HTU21D;67641;59.864;30.464;2023-04-08T11:31:37;17.49;49.24
78366;HTU21D;67641;59.864;30.464;2023-04-08T11:34:04;17.65;48.82
78366;HTU21D;67641;59.864;30.464;2023-04-08T11:36:31;17.50;49.33
78366;HTU21D;67641;59.864;30.464;2023-04-08T11:38:57;17.48;49.63
78366;HTU21D;67641;59.864;30.464;2023-04-08T11:41:35;17.59;48.66
78366;HTU21D;67641;59.864;30.464;2023-04-08T11:44:02;17.76;48.40
78366;HTU21D;67641;59.864;30.464;2023-04-08T11:46:30;18.07;48.86
78366;HTU21D;67641;59.864;30.464;2023-04-08T11:49:04;18.15;48.86
78366;HTU21D;67641;59.864;30.464;2023-04-08T11:51:33;18.12;48.28
78366;HTU21D;67641;59.864;30.464;2023-04-08T11:54:04;18.09;47.92
78366;HTU21D;67641;59.864;30.464;2023-04-08T11:56:44;17.99;48.52
78366;HTU21D;67641;59.864;30.464;2023-04-08T11:59:13;18.19;48.46
78366;HTU21D;67641;59.864;30.464;2023-04-08T12:01:40;18.44;46.93
78366;HTU21D;67641;59.864;30.464;2023-04-08T12:04:06;18.69;46.04
78366;HTU21D;67641;59.864;30.464;2023-04-08T12:06:35;18.63;46.47
78366;HTU21D;67641;59.864;30.464;2023-04-08T12:09:02;18.52;46.89
78366;HTU21D;67641;59.864;30.464;2023-04-08T12:11:28;18.48;46.29
78366;HTU21D;67641;59.864;30.464;2023-04-08T12:13:55;18.54;46.75
78366;HTU21D;67641;59.864;30.464;2023-04-08T12:16:23;18.62;47.17
78366;HTU21D;67641;59.864;30.464;2023-04-08T12:18:49;18.66;46.66
78366;HTU21D;67641;59.864;30.464;2023-04-08T12:21:16;18.58;47.00
78366;HTU21D;67641;59.864;30.464;2023-04-08T12:23:42;18.48;48.33
78366;HTU21D;67641;59.864;30.464;2023-04-08T12:26:09;18.23;49.02
78366;HTU21D;67641;59.864;30.464;2023-04-08T12:28:36;17.99;50.07
78366;HTU21D;67641;59.864;30.464;2023-04-08T12:31:03;17.84;50.34
78366;HTU21D;67641;59.864;30.464;2023-04-08T12:33:30;17.70;50.29
78366;HTU21D;67641;59.864;30.464;2023-04-08T12:35:57;17.89;50.49
78366;HTU21D;67641;59.864;30.464;2023-04-08T12:38:25;17.97;50.39
78366;HTU21D;67641;59.864;30.464;2023-04-08T12:40:54;18.17;49.55
78366;HTU21D;67641;59.864;30.464;2023-04-08T12:43:22;18.35;49.34
78366;HTU21D;67641;59.864;30.464;2023-04-08T12:45:49;18.39;49.72
78366;HTU21D;67641;59.864;30.464;2023-04-08T12:48:16;18.40;49.11
78366;HTU21D;67641;59.864;30.464;2023-04-08T12:50:43;18.43;49.12
78366;HTU21D;67641;59.864;30.464;2023-04-08T12:53:10;18.42;49.57
78366;HTU21D;67641;59.864;30.464;2023-04-08T12:55:36;18.08;51.20
78366;HTU21D;67641;59.864;30.464;2023-04-08T12:58:03;17.92;51.54
78366;HTU21D;67641;59.864;30.464;2023-04-08T13:00:30;17.81;52.15
78366;HTU21D;67641;59.864;30.464;2023-04-08T13:02:57;17.85;51.53
78366;HTU21D;67641;59.864;30.464;2023-04-08T13:05:23;17.68;52.24
78366;HTU21D;67641;59.864;30.464;2023-04-08T13:07:50;17.53;52.65
78366;HTU21D;67641;59.864;30.464;2023-04-08T13:10:16;17.52;52.74
78366;HTU21D;67641;59.864;30.464;2023-04-08T13:12:43;17.46;53.01
78366;HTU21D;67641;59.864;30.464;2023-04-08T13:15:10;17.20;53.23
78366;HTU21D;67641;59.864;30.464;2023-04-08T13:17:36;17.03;53.97
78366;HTU21D;67641;59.864;30.464;2023-04-08T13:20:03;17.04;53.72
78366;HTU21D;67641;59.864;30.464;2023-04-08T13:22:30;17.04;53.48
78366;HTU21D;67641;59.864;30.464;2023-04-08T13:24:56;17.16;53.31
78366;HTU21D;67641;59.864;30.464;2023-04-08T13:27:23;17.14;53.88
78366;HTU21D;67641;59.864;30.464;2023-04-08T13:29:49;17.14;53.68
78366;HTU21D;67641;59.864;30.464;2023-04-08T13:32:16;16.98;54.62
78366;HTU21D;67641;59.864;30.464;2023-04-08T13:34:43;16.90;54.59
78366;HTU21D;67641;59.864;30.464;2023-04-08T13:37:09;16.78;54.99
78366;HTU21D;67641;59.864;30.464;2023-04-08T13:39:36;16.61;56.17
78366;HTU21D;67641;59.864;30.464;2023-04-08T13:42:02;16.63;56.74
78366;HTU21D;67641;59.864;30.464;2023-04-08T13:44:29;16.47;56.48
78366;HTU21D;67641;59.864;30.464;2023-04-08T13:46:55;16.49;56.31
78366;HTU21D;67641;59.864;30.464;2023-04-08T13:49:22;16.39;57.13
78366;HTU21D;67641;59.864;30.464;2023-04-08T13:51:48;16.40;56.76
78366;HTU21D;67641;59.864;30.464;2023-04-08T13:54:15;16.45;56.54
78366;HTU21D;67641;59.864;30.464;2023-04-08T13:56:42;16.25;57.17
78366;HTU21D;67641;59.864;30.464;2023-04-08T13:59:08;16.31;56.94
78366;HTU21D;67641;59.864;30.464;2023-04-08T14:01:35;16.31;57.19
78366;HTU21D;67641;59.864;30.464;2023-04-08T14:04:02;16.12;57.60
78366;HTU21D;67641;59.864;30.464;2023-04-08T14:06:28;16.07;57.85
78366;HTU21D;67641;59.864;30.464;2023-04-08T14:08:56;15.99;58.20
78366;HTU21D;67641;59.864;30.464;2023-04-08T14:11:22;15.86;58.28
78366;HTU21D;67641;59.864;30.464;2023-04-08T14:13:49;15.88;58.29
78366;HTU21D;67641;59.864;30.464;2023-04-08T14:16:15;15.89;58.50
78366;HTU21D;67641;59.864;30.464;2023-04-08T14:18:42;15.87;58.04
78366;HTU21D;67641;59.864;30.464;2023-04-08T14:21:08;15.89;57.90
78366;HTU21D;67641;59.864;30.464;2023-04-08T14:23:35;15.97;57.84
78366;HTU21D;67641;59.864;30.464;2023-04-08T14:26:01;15.89;57.89
78366;HTU21D;67641;59.864;30.464;2023-04-08T14:28:28;15.89;57.93
78366;HTU21D;67641;59.864;30.464;2023-04-08T14:30:54;16.03;57.48
78366;HTU21D;67641;59.864;30.464;2023-04-08T14:33:21;16.18;57.00
78366;HTU21D;67641;59.864;30.464;2023-04-08T14:35:47;16.32;56.78
78366;HTU21D;67641;59.864;30.464;2023-04-08T14:38:14;16.18;57.13
78366;HTU21D;67641;59.864;30.464;2023-04-08T14:40:41;16.19;57.67
78366;HTU21D;67641;59.864;30.464;2023-04-08T14:43:07;16.13;57.82
78366;HTU21D;67641;59.864;30.464;2023-04-08T14:45:34;16.00;58.16
78366;HTU21D;67641;59.864;30.464;2023-04-08T14:48:00;15.87;58.87
78366;HTU21D;67641;59.864;30.464;2023-04-08T14:50:27;15.73;59.39
78366;HTU21D;67641;59.864;30.464;2023-04-08T14:52:53;15.62;59.71
78366;HTU21D;67641;59.864;30.464;2023-04-08T14:55:20;15.61;59.83
78366;HTU21D;67641;59.864;30.464;2023-04-08T14:57:48;15.59;59.92
78366;HTU21D;67641;59.864;30.464;2023-04-08T15:00:14;15.56;59.92
78366;HTU21D;67641;59.864;30.464;2023-04-08T15:02:41;15.47;61.07
78366;HTU21D;67641;59.864;30.464;2023-04-08T15:05:07;15.38;61.17
78366;HTU21D;67641;59.864;30.464;2023-04-08T15:07:34;15.38;60.58
78366;HTU21D;67641;59.864;30.464;2023-04-08T15:10:01;15.36;61.15
78366;HTU21D;67641;59.864;30.464;2023-04-08T15:12:27;15.39;61.81
78366;HTU21D;67641;59.864;30.464;2023-04-08T15:14:54;15.27;62.06